createdAt,value
2018-07-14T00:00:04.489Z,13.49
2018-07-14T00:01:04.447Z,13.47
2018-07-14T00:02:04.437Z,13.50
2018-07-14T00:03:04.429Z,13.50
2018-07-14T00:04:04.413Z,13.38
2018-07-14T00:05:04.402Z,13.47
2018-07-14T00:06:04.410Z,13.49
2018-07-14T00:07:04.379Z,13.49
2018-07-14T00:08:04.375Z,13.57
2018-07-14T00:09:04.362Z,13.60
2018-07-14T00:10:04.436Z,13.57
2018-07-14T00:11:04.369Z,13.71
2018-07-14T00:12:04.325Z,13.71
2018-07-14T00:13:04.318Z,13.70
2018-07-14T00:14:04.311Z,13.75
2018-07-14T00:15:04.301Z,13.78
2018-07-14T00:16:04.281Z,13.74
2018-07-14T00:17:04.317Z,13.81
2018-07-14T00:18:04.263Z,13.83
2018-07-14T00:19:04.255Z,13.78
2018-07-14T00:20:04.247Z,13.74
2018-07-14T00:21:04.235Z,13.81
2018-07-14T00:22:04.247Z,13.85
2018-07-14T00:23:04.243Z,13.74
2018-07-14T00:24:04.207Z,13.75
2018-07-14T00:25:04.188Z,13.74
2018-07-14T00:26:04.179Z,13.71
2018-07-14T00:27:04.173Z,13.71
2018-07-14T00:28:04.178Z,13.75
2018-07-14T00:29:04.147Z,13.79
2018-07-14T00:30:04.134Z,13.72
2018-07-14T00:31:04.121Z,13.71
2018-07-14T00:32:04.117Z,13.72
2018-07-14T00:33:04.130Z,13.71
2018-07-14T00:34:04.093Z,13.68
2018-07-14T00:35:04.087Z,13.67
2018-07-14T00:36:04.069Z,13.72
2018-07-14T00:37:04.063Z,13.70
2018-07-14T00:38:04.047Z,13.70
2018-07-14T00:39:04.054Z,13.71
2018-07-14T00:40:04.031Z,13.68
2018-07-14T00:41:04.021Z,13.75
2018-07-14T00:42:04.007Z,13.77
2018-07-14T00:43:03.998Z,13.71
2018-07-14T00:44:03.999Z,13.75
2018-07-14T00:45:03.972Z,13.78
2018-07-14T00:46:03.964Z,13.75
2018-07-14T00:47:03.956Z,13.72
2018-07-14T00:48:03.938Z,13.71
2018-07-14T00:49:03.958Z,13.77
2018-07-14T00:50:03.918Z,13.81
2018-07-14T00:51:03.907Z,13.83
2018-07-14T00:52:03.903Z,13.78
2018-07-14T00:53:03.890Z,13.83
2018-07-14T00:54:03.887Z,13.85
2018-07-14T00:55:03.883Z,13.70
2018-07-14T00:56:03.859Z,13.81
2018-07-14T00:57:03.846Z,13.72
2018-07-14T00:58:03.835Z,13.67
2018-07-14T00:59:03.827Z,13.70
2018-07-14T01:00:03.846Z,13.70
2018-07-14T01:01:03.812Z,13.62
2018-07-14T01:02:03.795Z,13.75
2018-07-14T01:03:03.789Z,13.67
2018-07-14T01:04:03.766Z,13.56
2018-07-14T01:05:03.758Z,13.60
2018-07-14T01:06:03.766Z,13.62
2018-07-14T01:07:03.735Z,13.59
2018-07-14T01:08:03.729Z,13.65
2018-07-14T01:09:03.717Z,13.60
2018-07-14T01:10:03.710Z,13.57
2018-07-14T01:11:03.717Z,13.49
2018-07-14T01:12:03.686Z,13.47
2018-07-14T01:13:03.672Z,13.50
2018-07-14T01:14:03.663Z,13.39
2018-07-14T01:15:03.656Z,13.37
2018-07-14T01:16:03.663Z,13.35
2018-07-14T01:17:03.630Z,13.23
2018-07-14T01:18:03.622Z,13.25
2018-07-14T01:19:03.613Z,13.23
2018-07-14T01:20:03.596Z,13.16
2018-07-14T01:21:03.587Z,13.13
2018-07-14T01:22:03.597Z,13.12
2018-07-14T01:23:03.562Z,13.16
2018-07-14T01:24:03.560Z,13.03
2018-07-14T01:25:03.546Z,13.11
2018-07-14T01:26:03.534Z,13.05
2018-07-14T01:27:03.549Z,13.01
2018-07-14T01:28:03.508Z,13.11
2018-07-14T01:29:03.500Z,13.03
2018-07-14T01:30:03.491Z,13.04
2018-07-14T01:31:03.477Z,13.01
2018-07-14T01:32:03.473Z,13.03
2018-07-14T01:33:03.477Z,12.91
2018-07-14T01:34:03.446Z,12.95
2018-07-14T01:35:03.432Z,12.94
2018-07-14T01:36:03.428Z,12.85
2018-07-14T01:37:03.415Z,12.85
2018-07-14T01:38:03.430Z,12.85
2018-07-14T01:39:03.397Z,12.82
2018-07-14T01:40:03.378Z,12.82
2018-07-14T01:41:03.370Z,12.83
2018-07-14T01:42:03.359Z,12.82
2018-07-14T01:43:03.380Z,12.80
2018-07-14T01:44:03.342Z,12.85
2018-07-14T01:45:03.329Z,12.79
2018-07-14T01:46:03.318Z,12.68
2018-07-14T01:47:03.310Z,12.65
2018-07-14T01:48:03.291Z,12.64
2018-07-14T01:49:03.306Z,12.72
2018-07-14T01:50:03.274Z,12.62
2018-07-14T01:51:03.267Z,12.70
2018-07-14T01:52:03.247Z,12.72
2018-07-14T01:53:03.239Z,12.73
2018-07-14T01:54:03.254Z,12.68
2018-07-14T01:55:03.215Z,12.62
2018-07-14T01:56:03.211Z,12.62
2018-07-14T01:57:03.208Z,12.57
2018-07-14T01:58:03.203Z,12.61
2018-07-14T01:59:03.190Z,12.64
2018-07-14T02:00:03.180Z,12.57
2018-07-14T02:01:03.153Z,12.40
2018-07-14T02:02:03.141Z,12.47
2018-07-14T02:03:03.127Z,12.45
2018-07-14T02:04:03.123Z,12.49
2018-07-14T02:05:03.138Z,12.49
2018-07-14T02:06:03.098Z,12.54
2018-07-14T02:07:03.087Z,12.45
2018-07-14T02:08:03.094Z,12.50
2018-07-14T02:09:03.067Z,12.49
2018-07-14T02:10:03.057Z,12.45
2018-07-14T02:11:03.075Z,12.46
2018-07-14T02:12:03.034Z,12.42
2018-07-14T02:13:03.022Z,12.43
2018-07-14T02:14:03.017Z,12.42
2018-07-14T02:15:02.997Z,12.49
2018-07-14T02:16:02.998Z,12.45
2018-07-14T02:17:02.999Z,12.46
2018-07-14T02:18:02.969Z,12.45
2018-07-14T02:19:02.963Z,12.47
2018-07-14T02:20:02.948Z,12.45
2018-07-14T02:21:02.949Z,12.43
2018-07-14T02:22:02.962Z,12.60
2018-07-14T02:23:02.917Z,12.61
2018-07-14T02:24:02.900Z,12.58
2018-07-14T02:25:02.891Z,12.62
2018-07-14T02:26:02.880Z,12.60
2018-07-14T02:27:02.868Z,12.57
2018-07-14T02:28:02.884Z,12.58
2018-07-14T02:29:02.871Z,12.61
2018-07-14T02:30:02.848Z,12.64
2018-07-14T02:31:02.835Z,12.60
2018-07-14T02:32:02.812Z,12.68
2018-07-14T02:33:02.832Z,12.70
2018-07-14T02:34:02.793Z,12.70
2018-07-14T02:35:02.785Z,12.68
2018-07-14T02:36:02.776Z,12.72
2018-07-14T02:37:02.762Z,12.83
2018-07-14T02:38:02.750Z,12.73
2018-07-14T02:39:02.769Z,12.79
2018-07-14T02:40:02.736Z,12.79
2018-07-14T02:41:02.740Z,12.80
2018-07-14T02:42:02.716Z,12.82
2018-07-14T02:43:02.703Z,13.01
2018-07-14T02:44:02.682Z,13.01
2018-07-14T02:45:02.692Z,12.93
2018-07-14T02:46:02.665Z,12.98
2018-07-14T02:47:02.650Z,12.97
2018-07-14T02:48:02.646Z,12.94
2018-07-14T02:49:02.634Z,12.87
2018-07-14T02:50:02.641Z,12.87
2018-07-14T02:51:02.612Z,12.87
2018-07-14T02:52:02.600Z,12.94
2018-07-14T02:53:02.586Z,12.91
2018-07-14T02:54:02.592Z,12.95
2018-07-14T02:55:02.618Z,13.01
2018-07-14T02:56:02.552Z,13.08
2018-07-14T02:57:02.542Z,13.01
2018-07-14T02:58:02.533Z,13.09
2018-07-14T02:59:02.518Z,13.08
2018-07-14T03:00:02.527Z,13.03
2018-07-14T03:01:02.527Z,12.98
2018-07-14T03:02:02.494Z,13.00
2018-07-14T03:03:02.481Z,13.01
2018-07-14T03:04:02.469Z,12.97
2018-07-14T03:05:02.455Z,13.00
2018-07-14T03:06:02.446Z,12.97
2018-07-14T03:07:02.461Z,12.94
2018-07-14T03:08:02.428Z,12.86
2018-07-14T03:09:02.423Z,12.83
2018-07-14T03:10:02.401Z,12.80
2018-07-14T03:11:02.404Z,12.82
2018-07-14T03:12:02.385Z,12.85
2018-07-14T03:13:02.390Z,12.83
2018-07-14T03:14:02.377Z,12.82
2018-07-14T03:15:02.368Z,12.83
2018-07-14T03:16:02.385Z,12.83
2018-07-14T03:17:02.379Z,12.82
2018-07-14T03:18:02.340Z,12.87
2018-07-14T03:19:02.317Z,12.85
2018-07-14T03:20:02.303Z,12.83
2018-07-14T03:21:02.283Z,12.90
2018-07-14T03:22:02.279Z,12.82
2018-07-14T03:23:02.291Z,12.87
2018-07-14T03:24:02.312Z,12.83
2018-07-14T03:25:02.244Z,12.79
2018-07-14T03:26:02.240Z,12.82
2018-07-14T03:27:02.227Z,12.87
2018-07-14T03:28:02.247Z,12.83
2018-07-14T03:29:02.215Z,12.78
2018-07-14T03:30:02.222Z,12.65
2018-07-14T03:31:02.172Z,12.75
2018-07-14T03:32:02.175Z,12.65
2018-07-14T03:33:02.163Z,12.55
2018-07-14T03:34:02.153Z,12.57
2018-07-14T03:35:02.177Z,12.57
2018-07-14T03:36:02.129Z,12.61
2018-07-14T03:37:02.107Z,12.43
2018-07-14T03:38:02.133Z,12.49
2018-07-14T03:39:02.085Z,12.43
2018-07-14T03:40:02.080Z,12.45
2018-07-14T03:41:02.096Z,12.46
2018-07-14T03:42:02.083Z,12.49
2018-07-14T03:43:02.040Z,12.49
2018-07-14T03:44:02.051Z,12.55
2018-07-14T03:45:02.023Z,12.49
2018-07-14T03:46:02.016Z,12.45
2018-07-14T03:47:02.024Z,12.45
2018-07-14T03:48:02.015Z,12.57
2018-07-14T03:49:01.991Z,12.61
2018-07-14T03:50:01.965Z,12.50
2018-07-14T03:51:01.953Z,12.50
2018-07-14T03:52:01.988Z,12.55
2018-07-14T03:53:01.936Z,12.45
2018-07-14T03:54:01.925Z,12.55
2018-07-14T03:55:01.916Z,12.64
2018-07-14T03:56:01.901Z,12.55
2018-07-14T03:57:02.011Z,12.58
2018-07-14T03:58:01.918Z,12.58
2018-07-14T03:59:01.888Z,12.49
2018-07-14T04:00:01.860Z,12.40
2018-07-14T04:01:01.862Z,12.49
2018-07-14T04:02:01.837Z,12.46
2018-07-14T04:03:01.822Z,12.43
2018-07-14T04:04:01.852Z,12.47
2018-07-14T04:05:01.855Z,12.46
2018-07-14T04:06:01.794Z,12.46
2018-07-14T04:07:01.795Z,12.46
2018-07-14T04:08:01.768Z,12.46
2018-07-14T04:09:01.772Z,12.46
2018-07-14T04:10:01.772Z,12.43
2018-07-14T04:11:01.756Z,12.50
2018-07-14T04:12:01.758Z,12.46
2018-07-14T04:13:01.719Z,12.60
2018-07-14T04:14:01.774Z,12.57
2018-07-14T04:15:01.730Z,12.64
2018-07-14T04:16:01.688Z,12.50
2018-07-14T04:17:01.676Z,12.57
2018-07-14T04:18:01.664Z,12.65
2018-07-14T04:19:01.655Z,12.57
2018-07-14T04:20:01.663Z,12.57
2018-07-14T04:21:01.630Z,12.61
2018-07-14T04:22:01.619Z,12.72
2018-07-14T04:23:01.608Z,12.73
2018-07-14T04:24:01.617Z,12.73
2018-07-14T04:25:01.639Z,12.85
2018-07-14T04:26:01.617Z,12.80
2018-07-14T04:27:01.568Z,12.90
2018-07-14T04:28:01.553Z,12.90
2018-07-14T04:29:01.543Z,12.86
2018-07-14T04:30:01.563Z,12.94
2018-07-14T04:31:01.526Z,12.91
2018-07-14T04:32:01.548Z,13.00
2018-07-14T04:33:01.498Z,12.95
2018-07-14T04:34:01.500Z,12.95
2018-07-14T04:35:01.476Z,12.91
2018-07-14T04:36:01.509Z,13.01
2018-07-14T04:37:01.458Z,13.03
2018-07-14T04:38:01.451Z,13.03
2018-07-14T04:39:01.438Z,12.97
2018-07-14T04:40:01.420Z,12.97
2018-07-14T04:41:01.411Z,13.08
2018-07-14T04:42:01.445Z,12.98
2018-07-14T04:43:01.389Z,13.09
2018-07-14T04:44:01.395Z,13.16
2018-07-14T04:45:01.372Z,13.08
2018-07-14T04:46:01.361Z,13.11
2018-07-14T04:47:01.401Z,13.20
2018-07-14T04:48:01.341Z,13.13
2018-07-14T04:49:01.329Z,13.20
2018-07-14T04:50:01.316Z,13.20
2018-07-14T04:51:01.309Z,13.22
2018-07-14T04:52:01.319Z,13.27
2018-07-14T04:53:01.324Z,13.28
2018-07-14T04:54:01.270Z,13.39
2018-07-14T04:55:01.257Z,13.30
2018-07-14T04:56:01.347Z,13.35
2018-07-14T04:57:01.257Z,13.37
2018-07-14T04:58:01.267Z,13.37
2018-07-14T04:59:01.275Z,13.49
2018-07-14T05:00:01.213Z,13.50
2018-07-14T05:01:01.211Z,13.46
2018-07-14T05:02:01.214Z,13.57
2018-07-14T05:03:01.226Z,13.60
2018-07-14T05:04:01.249Z,13.70
2018-07-14T05:05:01.153Z,13.78
2018-07-14T05:06:01.142Z,13.81
2018-07-14T05:07:01.135Z,13.96
2018-07-14T05:08:01.175Z,13.97
2018-07-14T05:09:01.111Z,13.93
2018-07-14T05:10:01.126Z,13.97
2018-07-14T05:11:01.094Z,13.96
2018-07-14T05:12:01.097Z,13.93
2018-07-14T05:13:01.064Z,14.07
2018-07-14T05:14:01.054Z,14.08
2018-07-14T05:15:01.077Z,14.11
2018-07-14T05:16:01.055Z,14.12
2018-07-14T05:17:01.029Z,14.08
2018-07-14T05:18:01.012Z,14.22
2018-07-14T05:19:01.004Z,14.07
2018-07-14T05:20:01.001Z,14.20
2018-07-14T05:21:01.020Z,14.26
2018-07-14T05:22:00.979Z,14.23
2018-07-14T05:23:00.960Z,14.25
2018-07-14T05:24:00.993Z,14.36
2018-07-14T05:25:00.933Z,14.40
2018-07-14T05:26:00.937Z,14.47
2018-07-14T05:27:00.966Z,14.40
2018-07-14T05:28:00.908Z,14.45
2018-07-14T05:29:00.906Z,14.40
2018-07-14T05:30:00.893Z,14.43
2018-07-14T05:31:00.874Z,14.47
2018-07-14T05:32:00.911Z,14.54
2018-07-14T05:33:00.849Z,14.58
2018-07-14T05:34:00.851Z,14.58
2018-07-14T05:35:00.830Z,14.59
2018-07-14T05:36:00.816Z,14.63
2018-07-14T05:37:00.804Z,14.63
2018-07-14T05:38:00.824Z,14.69
2018-07-14T05:39:00.784Z,14.77
2018-07-14T05:40:00.785Z,14.84
2018-07-14T05:41:00.801Z,14.88
2018-07-14T05:42:00.756Z,15.00
2018-07-14T05:43:00.743Z,14.99
2018-07-14T05:44:00.827Z,15.03
2018-07-14T05:45:00.739Z,15.03
2018-07-14T05:46:00.747Z,15.06
2018-07-14T05:47:00.713Z,15.09
2018-07-14T05:48:00.741Z,15.14
2018-07-14T05:49:00.696Z,15.24
2018-07-14T05:50:00.690Z,15.17
2018-07-14T05:51:00.655Z,15.27
2018-07-14T05:52:00.659Z,15.27
2018-07-14T05:53:00.641Z,15.35
2018-07-14T05:54:00.625Z,15.43
2018-07-14T05:55:00.667Z,15.47
2018-07-14T05:56:00.599Z,15.46
2018-07-14T05:57:00.587Z,15.51
2018-07-14T05:58:00.576Z,15.62
2018-07-14T05:59:00.589Z,15.62
2018-07-14T06:00:00.564Z,15.70
2018-07-14T06:01:00.589Z,15.75
2018-07-14T06:02:00.540Z,15.75
2018-07-14T06:03:00.530Z,15.84
2018-07-14T06:04:00.527Z,15.97
2018-07-14T06:05:00.500Z,16.15
2018-07-14T06:06:00.498Z,16.26
2018-07-14T06:07:00.506Z,16.33
2018-07-14T06:08:00.473Z,16.43
2018-07-14T06:09:00.457Z,16.56
2018-07-14T06:10:00.449Z,16.72
2018-07-14T06:11:00.453Z,16.78
2018-07-14T06:12:00.449Z,17.01
2018-07-14T06:13:00.422Z,17.02
2018-07-14T06:14:00.411Z,17.11
2018-07-14T06:15:00.396Z,17.11
2018-07-14T06:16:00.387Z,17.16
2018-07-14T06:17:00.400Z,17.23
2018-07-14T06:18:00.367Z,17.24
2018-07-14T06:19:00.351Z,17.42
2018-07-14T06:20:00.351Z,17.34
2018-07-14T06:21:00.334Z,17.42
2018-07-14T06:22:00.322Z,17.31
2018-07-14T06:23:00.337Z,17.38
2018-07-14T06:24:00.305Z,17.36
2018-07-14T06:25:00.291Z,17.36
2018-07-14T06:26:00.290Z,17.36
2018-07-14T06:27:00.278Z,17.30
2018-07-14T06:28:00.252Z,17.31
2018-07-14T06:29:00.264Z,17.31
2018-07-14T06:30:00.233Z,17.29
2018-07-14T06:31:00.241Z,17.24
2018-07-14T06:32:00.276Z,17.24
2018-07-14T06:33:00.207Z,17.20
2018-07-14T06:34:00.241Z,17.23
2018-07-14T06:35:00.186Z,17.24
2018-07-14T06:36:00.167Z,17.23
2018-07-14T06:37:00.157Z,17.19
2018-07-14T06:38:00.155Z,17.14
2018-07-14T06:39:00.140Z,17.05
2018-07-14T06:40:00.156Z,17.02
2018-07-14T06:41:00.127Z,17.02
2018-07-14T06:42:00.103Z,16.84
2018-07-14T06:43:00.092Z,16.89
2018-07-14T06:44:00.085Z,16.89
2018-07-14T06:45:00.080Z,16.79
2018-07-14T06:46:00.089Z,16.81
2018-07-14T06:47:00.053Z,16.86
2018-07-14T06:48:00.042Z,16.91
2018-07-14T06:49:00.032Z,16.96
2018-07-14T06:50:00.030Z,16.99
2018-07-14T06:51:00.007Z,16.97
2018-07-14T06:52:00.030Z,17.06
2018-07-14T06:52:59.989Z,17.12
2018-07-14T06:53:59.974Z,17.09
2018-07-14T06:54:59.965Z,17.11
2018-07-14T06:55:59.953Z,17.14
2018-07-14T06:56:59.966Z,17.06
2018-07-14T06:57:59.940Z,17.14
2018-07-14T06:58:59.921Z,17.09
2018-07-14T06:59:59.929Z,17.09
2018-07-14T07:00:59.896Z,17.16
2018-07-14T07:01:59.938Z,17.22
2018-07-14T07:02:59.880Z,17.34
2018-07-14T07:03:59.904Z,17.29
2018-07-14T07:04:59.861Z,17.44
2018-07-14T07:05:59.850Z,17.41
2018-07-14T07:06:59.834Z,17.44
2018-07-14T07:07:59.853Z,17.41
2018-07-14T07:08:59.812Z,17.46
2018-07-14T07:09:59.813Z,17.49
2018-07-14T07:10:59.792Z,17.64
2018-07-14T07:11:59.780Z,17.59
2018-07-14T07:12:59.813Z,17.72
2018-07-14T07:13:59.782Z,17.79
2018-07-14T07:14:59.743Z,17.80
2018-07-14T07:15:59.735Z,17.82
2018-07-14T07:16:59.727Z,17.83
2018-07-14T07:17:59.722Z,17.90
2018-07-14T07:18:59.738Z,17.98
2018-07-14T07:19:59.718Z,18.03
2018-07-14T07:20:59.701Z,18.07
2018-07-14T07:21:59.691Z,18.04
2018-07-14T07:22:59.690Z,18.13
2018-07-14T07:23:59.651Z,18.20
2018-07-14T07:24:59.669Z,18.22
2018-07-14T07:25:59.624Z,18.31
2018-07-14T07:26:59.626Z,18.37
2018-07-14T07:27:59.607Z,18.50
2018-07-14T07:28:59.598Z,18.60
2018-07-14T07:29:59.587Z,18.75
2018-07-14T07:30:59.594Z,18.71
2018-07-14T07:31:59.603Z,18.78
2018-07-14T07:32:59.549Z,18.90
2018-07-14T07:33:59.594Z,18.93
2018-07-14T07:34:59.546Z,19.12
2018-07-14T07:35:59.553Z,19.08
2018-07-14T07:36:59.518Z,19.26
2018-07-14T07:37:59.538Z,19.34
2018-07-14T07:38:59.488Z,19.45
2018-07-14T07:39:59.475Z,19.58
2018-07-14T07:40:59.476Z,19.70
2018-07-14T07:41:59.486Z,19.73
2018-07-14T07:42:59.448Z,19.73
2018-07-14T07:43:59.433Z,19.64
2018-07-14T07:44:59.421Z,19.54
2018-07-14T07:45:59.426Z,19.51
2018-07-14T07:46:59.400Z,19.44
2018-07-14T07:47:59.418Z,19.45
2018-07-14T07:48:59.382Z,19.51
2018-07-14T07:49:59.397Z,19.58
2018-07-14T07:50:59.360Z,19.56
2018-07-14T07:51:59.346Z,19.51
2018-07-14T07:52:59.364Z,19.49
2018-07-14T07:53:59.322Z,19.58
2018-07-14T07:54:59.321Z,19.58
2018-07-14T07:55:59.312Z,19.58
2018-07-14T07:56:59.304Z,19.59
2018-07-14T07:57:59.280Z,19.54
2018-07-14T07:58:59.311Z,19.63
2018-07-14T07:59:59.267Z,19.73
2018-07-14T08:00:59.277Z,19.70
2018-07-14T08:01:59.245Z,19.82
2018-07-14T08:02:59.233Z,19.91
2018-07-14T08:03:59.220Z,19.92
2018-07-14T08:04:59.262Z,19.94
2018-07-14T08:05:59.208Z,19.96
2018-07-14T08:06:59.210Z,19.95
2018-07-14T08:07:59.231Z,19.88
2018-07-14T08:08:59.180Z,19.89
2018-07-14T08:09:59.157Z,19.99
2018-07-14T08:10:59.162Z,19.92
2018-07-14T08:11:59.129Z,20.03
2018-07-14T08:12:59.132Z,20.03
2018-07-14T08:13:59.113Z,20.11
2018-07-14T08:14:59.102Z,20.19
2018-07-14T08:15:59.155Z,20.16
2018-07-14T08:16:59.073Z,20.18
2018-07-14T08:17:59.063Z,20.36
2018-07-14T08:18:59.062Z,20.36
2018-07-14T08:19:59.049Z,20.39
2018-07-14T08:20:59.040Z,20.51
2018-07-14T08:21:59.055Z,20.48
2018-07-14T08:22:59.074Z,20.63
2018-07-14T08:23:59.034Z,20.56
2018-07-14T08:24:58.988Z,20.60
2018-07-14T08:25:58.989Z,20.60
2018-07-14T08:26:58.970Z,20.72
2018-07-14T08:27:58.983Z,20.81
2018-07-14T08:28:58.953Z,20.88
2018-07-14T08:29:58.938Z,21.06
2018-07-14T08:30:58.927Z,21.20
2018-07-14T08:31:58.936Z,21.05
2018-07-14T08:32:58.937Z,21.18
2018-07-14T08:33:58.910Z,21.55
2018-07-14T08:34:58.915Z,21.69
2018-07-14T08:35:58.875Z,21.98
2018-07-14T08:36:58.872Z,22.07
2018-07-14T08:37:58.900Z,22.28
2018-07-14T08:38:58.894Z,22.38
2018-07-14T08:39:58.837Z,22.54
2018-07-14T08:40:58.828Z,22.81
2018-07-14T08:41:58.817Z,22.80
2018-07-14T08:42:58.824Z,22.85
2018-07-14T08:43:58.794Z,23.06
2018-07-14T08:44:58.797Z,23.24
2018-07-14T08:45:58.776Z,23.24
2018-07-14T08:46:58.775Z,23.34
2018-07-14T08:47:58.756Z,23.37
2018-07-14T08:48:58.739Z,23.50
2018-07-14T08:49:58.753Z,23.61
2018-07-14T08:50:58.720Z,23.62
2018-07-14T08:51:58.712Z,23.87
2018-07-14T08:52:58.704Z,24.05
2018-07-14T08:53:58.704Z,24.10
2018-07-14T08:54:58.706Z,24.21
2018-07-14T08:55:58.726Z,24.28
2018-07-14T08:56:58.693Z,24.29
2018-07-14T08:57:58.711Z,24.38
2018-07-14T08:58:58.644Z,24.42
2018-07-14T08:59:58.632Z,24.40
2018-07-14T09:00:58.623Z,24.53
2018-07-14T09:01:58.638Z,24.65
2018-07-14T09:02:58.601Z,24.81
2018-07-14T09:03:58.591Z,24.81
2018-07-14T09:04:58.588Z,24.89
2018-07-14T09:05:58.576Z,24.78
2018-07-14T09:06:58.567Z,24.73
2018-07-14T09:07:58.581Z,24.81
2018-07-14T09:08:58.536Z,24.84
2018-07-14T09:09:58.526Z,24.91
2018-07-14T09:10:58.518Z,25.13
2018-07-14T09:11:58.512Z,25.29
2018-07-14T09:12:58.530Z,25.33
2018-07-14T09:13:58.509Z,25.55
2018-07-14T09:14:58.481Z,25.53
2018-07-14T09:15:58.465Z,25.70
2018-07-14T09:16:58.459Z,25.96
2018-07-14T09:17:58.469Z,26.05
2018-07-14T09:18:58.481Z,26.02
2018-07-14T09:19:58.442Z,26.05
2018-07-14T09:20:58.420Z,25.98
2018-07-14T09:21:58.453Z,25.93
2018-07-14T09:22:58.397Z,25.90
2018-07-14T09:23:58.390Z,25.85
2018-07-14T09:24:58.404Z,25.75
2018-07-14T09:25:58.384Z,26.05
2018-07-14T09:26:58.371Z,26.06
2018-07-14T09:27:58.346Z,26.07
2018-07-14T09:28:58.338Z,25.98
2018-07-14T09:29:58.355Z,26.22
2018-07-14T09:30:58.327Z,26.44
2018-07-14T09:31:58.330Z,26.55
2018-07-14T09:32:58.308Z,26.83
2018-07-14T09:33:58.341Z,26.97
2018-07-14T09:34:58.278Z,27.11
2018-07-14T09:35:58.304Z,27.32
2018-07-14T09:36:58.263Z,27.18
2018-07-14T09:37:58.338Z,27.18
2018-07-14T09:38:58.244Z,27.03
2018-07-14T09:39:58.316Z,27.18
2018-07-14T09:40:58.243Z,27.29
2018-07-14T09:41:58.264Z,27.47
2018-07-14T09:42:58.202Z,27.26
2018-07-14T09:43:58.226Z,27.14
2018-07-14T09:44:58.192Z,27.20
2018-07-14T09:45:58.179Z,27.52
2018-07-14T09:46:58.221Z,27.83
2018-07-14T09:47:58.160Z,27.75
2018-07-14T09:48:58.142Z,27.75
2018-07-14T09:49:58.132Z,27.82
2018-07-14T09:50:58.155Z,27.86
2018-07-14T09:51:58.113Z,27.68
2018-07-14T09:52:58.125Z,27.52
2018-07-14T09:53:58.090Z,27.65
2018-07-14T09:54:58.081Z,27.17
2018-07-14T09:55:58.073Z,26.78
2018-07-14T09:56:58.067Z,26.47
2018-07-14T09:57:58.051Z,26.41
2018-07-14T09:58:58.080Z,26.43
2018-07-14T09:59:58.025Z,26.52
2018-07-14T10:00:58.028Z,26.36
2018-07-14T10:01:58.016Z,26.23
2018-07-14T10:02:58.004Z,26.02
2018-07-14T10:03:57.992Z,25.90
2018-07-14T10:04:58.012Z,25.87
2018-07-14T10:05:57.972Z,25.81
2018-07-14T10:06:57.952Z,25.77
2018-07-14T10:07:57.948Z,25.66
2018-07-14T10:08:57.936Z,25.65
2018-07-14T10:09:58.007Z,25.48
2018-07-14T10:10:57.917Z,25.38
2018-07-14T10:11:57.899Z,25.31
2018-07-14T10:12:57.892Z,25.28
2018-07-14T10:13:57.881Z,25.29
2018-07-14T10:14:57.908Z,25.23
2018-07-14T10:15:57.898Z,25.26
2018-07-14T10:16:57.852Z,25.08
2018-07-14T10:17:57.842Z,25.14
2018-07-14T10:18:57.833Z,25.01
2018-07-14T10:19:57.819Z,25.06
2018-07-14T10:20:57.825Z,25.13
2018-07-14T10:21:57.837Z,25.08
2018-07-14T10:22:57.794Z,25.25
2018-07-14T10:23:57.808Z,25.31
2018-07-14T10:24:57.792Z,25.43
2018-07-14T10:25:57.848Z,25.35
2018-07-14T10:26:57.769Z,25.29
2018-07-14T10:27:57.745Z,25.41
2018-07-14T10:28:57.751Z,25.35
2018-07-14T10:29:57.714Z,25.36
2018-07-14T10:30:57.705Z,25.41
2018-07-14T10:31:57.689Z,25.44
2018-07-14T10:32:57.718Z,25.29
2018-07-14T10:33:57.767Z,25.35
2018-07-14T10:34:57.689Z,25.25
2018-07-14T10:35:57.679Z,25.21
2018-07-14T10:36:57.642Z,25.29
2018-07-14T10:37:57.628Z,25.36
2018-07-14T10:38:57.652Z,25.36
2018-07-14T10:39:57.621Z,25.33
2018-07-14T10:40:57.598Z,25.35
2018-07-14T10:41:57.649Z,25.35
2018-07-14T10:42:57.580Z,25.38
2018-07-14T10:43:57.605Z,25.53
2018-07-14T10:44:57.590Z,25.58
2018-07-14T10:45:57.545Z,25.62
2018-07-14T10:46:57.533Z,25.53
2018-07-14T10:47:57.530Z,25.50
2018-07-14T10:48:57.528Z,25.51
2018-07-14T10:49:57.545Z,25.65
2018-07-14T10:50:57.495Z,25.91
2018-07-14T10:51:57.482Z,26.21
2018-07-14T10:52:57.477Z,26.37
2018-07-14T10:53:57.464Z,26.78
2018-07-14T10:54:57.463Z,27.11
2018-07-14T10:55:57.473Z,27.33
2018-07-14T10:56:57.432Z,27.55
2018-07-14T10:57:57.422Z,27.89
2018-07-14T10:58:57.409Z,27.96
2018-07-14T10:59:57.431Z,28.05
2018-07-14T11:00:57.404Z,28.10
2018-07-14T11:01:57.422Z,27.67
2018-07-14T11:02:57.377Z,27.15
2018-07-14T11:03:57.375Z,26.41
2018-07-14T11:04:57.364Z,26.26
2018-07-14T11:05:57.340Z,26.16
2018-07-14T11:06:57.326Z,26.18
2018-07-14T11:07:57.353Z,26.31
2018-07-14T11:08:57.311Z,26.52
2018-07-14T11:09:57.300Z,26.53
2018-07-14T11:10:57.291Z,26.51
2018-07-14T11:11:57.284Z,26.53
2018-07-14T11:12:57.271Z,26.63
2018-07-14T11:13:57.280Z,26.63
2018-07-14T11:14:57.293Z,26.70
2018-07-14T11:15:57.235Z,26.70
2018-07-14T11:16:57.234Z,26.70
2018-07-14T11:17:57.254Z,26.74
2018-07-14T11:18:57.236Z,26.88
2018-07-14T11:19:57.205Z,26.99
2018-07-14T11:20:57.199Z,27.05
2018-07-14T11:21:57.184Z,27.17
2018-07-14T11:22:57.183Z,27.22
2018-07-14T11:23:57.157Z,27.42
2018-07-14T11:24:57.191Z,27.68
2018-07-14T11:25:57.146Z,27.78
2018-07-14T11:26:57.150Z,27.93
2018-07-14T11:27:57.126Z,27.95
2018-07-14T11:28:57.113Z,28.25
2018-07-14T11:29:57.105Z,28.94
2018-07-14T11:30:57.112Z,29.60
2018-07-14T11:31:57.091Z,30.37
2018-07-14T11:32:57.090Z,30.54
2018-07-14T11:33:57.074Z,30.48
2018-07-14T11:34:57.072Z,30.90
2018-07-14T11:35:57.079Z,31.07
2018-07-14T11:36:57.047Z,29.86
2018-07-14T11:37:57.042Z,29.23
2018-07-14T11:38:57.027Z,28.82
2018-07-14T11:39:57.026Z,28.41
2018-07-14T11:40:57.008Z,28.01
2018-07-14T11:41:57.033Z,28.57
2018-07-14T11:42:56.985Z,29.61
2018-07-14T11:43:56.983Z,30.51
2018-07-14T11:44:56.973Z,31.18
2018-07-14T11:45:56.962Z,31.70
2018-07-14T11:46:56.957Z,32.14
2018-07-14T11:47:57.046Z,32.80
2018-07-14T11:48:56.952Z,32.87
2018-07-14T11:49:56.927Z,33.20
2018-07-14T11:50:56.915Z,33.99
2018-07-14T11:51:56.916Z,34.92
2018-07-14T11:52:56.903Z,35.60
2018-07-14T11:53:56.927Z,35.89
2018-07-14T11:54:56.892Z,36.12
2018-07-14T11:55:56.875Z,36.12
2018-07-14T11:56:56.869Z,34.71
2018-07-14T11:57:56.864Z,33.79
2018-07-14T11:58:56.867Z,33.00
2018-07-14T11:59:56.869Z,32.18
2018-07-14T12:00:56.847Z,31.46
2018-07-14T12:01:56.878Z,32.09
2018-07-14T12:02:56.815Z,33.04
2018-07-14T12:03:56.815Z,33.76
2018-07-14T12:04:56.803Z,34.08
2018-07-14T12:05:56.813Z,33.20
2018-07-14T12:06:56.786Z,32.30
2018-07-14T12:07:56.771Z,31.31
2018-07-14T12:08:56.766Z,31.15
2018-07-14T12:09:56.757Z,30.69
2018-07-14T12:10:56.785Z,30.00
2018-07-14T12:11:56.742Z,30.96
2018-07-14T12:12:56.741Z,31.90
2018-07-14T12:13:56.728Z,32.11
2018-07-14T12:14:56.710Z,31.18
2018-07-14T12:15:56.762Z,30.23
2018-07-14T12:16:56.744Z,29.57
2018-07-14T12:17:56.684Z,29.05
2018-07-14T12:18:56.684Z,28.62
2018-07-14T12:19:56.660Z,28.44
2018-07-14T12:20:56.656Z,28.22
2018-07-14T12:21:56.659Z,27.95
2018-07-14T12:22:56.665Z,27.82
2018-07-14T12:23:56.629Z,28.08
2018-07-14T12:24:56.617Z,29.35
2018-07-14T12:25:56.607Z,30.72
2018-07-14T12:26:56.607Z,31.55
2018-07-14T12:27:56.619Z,32.48
2018-07-14T12:28:56.580Z,33.32
2018-07-14T12:29:56.570Z,34.13
2018-07-14T12:30:56.565Z,34.58
2018-07-14T12:31:56.581Z,35.37
2018-07-14T12:32:56.583Z,35.71
2018-07-14T12:33:56.560Z,35.71
2018-07-14T12:34:56.523Z,35.93
2018-07-14T12:35:56.524Z,36.49
2018-07-14T12:36:56.510Z,36.54
2018-07-14T12:37:56.507Z,35.37
2018-07-14T12:38:56.496Z,33.98
2018-07-14T12:39:56.498Z,33.28
2018-07-14T12:40:56.479Z,34.18
2018-07-14T12:41:56.466Z,35.02
2018-07-14T12:42:56.462Z,35.53
2018-07-14T12:43:56.452Z,35.90
2018-07-14T12:44:56.471Z,36.09
2018-07-14T12:45:56.433Z,35.90
2018-07-14T12:46:56.422Z,36.18
2018-07-14T12:47:56.425Z,36.67
2018-07-14T12:48:56.411Z,36.59
2018-07-14T12:49:56.404Z,36.57
2018-07-14T12:50:56.425Z,36.12
2018-07-14T12:51:56.382Z,35.52